createdAt,value
2023-04-09T00:02:41.235Z,11.1
2023-04-09T00:07:43.157Z,10.9
2023-04-09T00:12:41.129Z,11.0
2023-04-09T00:22:41.124Z,11.1
2023-04-09T00:27:41.142Z,10.9
2023-04-09T00:32:41.281Z,10.8
2023-04-09T00:47:42.356Z,10.9
2023-04-09T00:52:41.141Z,10.8
2023-04-09T00:57:41.125Z,10.9
2023-04-09T01:02:41.365Z,10.8
2023-04-09T01:12:42.491Z,10.6
2023-04-09T01:17:41.194Z,10.5
2023-04-09T01:22:41.129Z,10.8
2023-04-09T01:27:41.805Z,10.7
2023-04-09T01:32:41.219Z,10.9
2023-04-09T01:37:42.489Z,10.8
2023-04-09T01:42:41.161Z,10.5
2023-04-09T01:47:41.211Z,10.9
2023-04-09T01:52:41.184Z,10.8
2023-04-09T02:02:41.343Z,10.9
2023-04-09T02:07:41.152Z,10.7
2023-04-09T02:27:41.157Z,10.6
2023-04-09T02:37:41.165Z,10.4
2023-04-09T02:42:41.160Z,10.6
2023-04-09T02:47:41.225Z,10.8
2023-04-09T02:57:41.170Z,10.7
2023-04-09T03:02:41.314Z,10.6
2023-04-09T03:07:41.178Z,10.5
2023-04-09T03:12:41.182Z,10.7
2023-04-09T03:17:41.227Z,10.6
2023-04-09T03:27:41.163Z,10.4
2023-04-09T03:42:41.168Z,10.5
2023-04-09T03:47:41.210Z,10.4
2023-04-09T03:52:41.197Z,10.2
2023-04-09T03:57:41.183Z,10.3
2023-04-09T04:02:41.461Z,10.2
2023-04-09T04:12:41.333Z,10.1
2023-04-09T04:17:41.270Z,10.0
2023-04-09T04:27:41.174Z,9.9
2023-04-09T04:32:41.242Z,9.7
2023-04-09T04:37:41.213Z,9.6
2023-04-09T04:42:41.207Z,9.2
2023-04-09T04:52:41.215Z,9.0
2023-04-09T04:57:41.199Z,8.8
2023-04-09T05:02:41.309Z,8.9
2023-04-09T05:07:41.208Z,8.7
2023-04-09T05:12:41.200Z,8.6
2023-04-09T05:27:41.229Z,8.5
2023-04-09T05:32:41.257Z,8.7
2023-04-09T05:37:41.249Z,8.5
2023-04-09T05:42:41.213Z,8.8
2023-04-09T05:47:41.257Z,8.6
2023-04-09T06:07:41.271Z,8.7
2023-04-09T06:22:41.224Z,8.8
2023-04-09T06:32:53.172Z,8.9
2023-04-09T06:47:41.257Z,9.0
2023-04-09T06:52:41.263Z,9.2
2023-04-09T07:02:41.543Z,9.5
2023-04-09T07:12:41.262Z,9.6
2023-04-09T07:17:41.264Z,9.5
2023-04-09T07:22:41.265Z,9.9
2023-04-09T07:27:41.261Z,9.8
2023-04-09T07:32:41.252Z,10.0
2023-04-09T07:37:41.231Z,10.2
2023-04-09T07:47:41.302Z,10.3
2023-04-09T07:52:41.257Z,10.6
2023-04-09T08:02:41.528Z,10.8
2023-04-09T08:07:41.246Z,11.0
2023-04-09T08:12:41.262Z,11.1
2023-04-09T08:17:41.316Z,11.3
2023-04-09T08:22:41.250Z,11.4
2023-04-09T08:27:41.274Z,11.7
2023-04-09T08:32:41.319Z,11.6
2023-04-09T08:37:41.254Z,12.2
2023-04-09T08:42:41.276Z,12.1
2023-04-09T08:47:41.350Z,12.2
2023-04-09T08:52:41.264Z,12.5
2023-04-09T08:57:41.273Z,12.9
2023-04-09T09:02:41.351Z,13.0
2023-04-09T09:07:41.278Z,13.1
2023-04-09T09:12:41.277Z,13.2
2023-04-09T09:17:41.350Z,13.5
2023-04-09T09:22:41.267Z,13.4
2023-04-09T09:27:41.304Z,13.6
2023-04-09T09:32:41.339Z,13.8
2023-04-09T09:37:41.277Z,13.6
2023-04-09T09:42:41.275Z,14.3
2023-04-09T09:52:41.307Z,14.8
2023-04-09T09:57:41.303Z,14.6
2023-04-09T10:02:41.402Z,14.9
2023-04-09T10:07:41.301Z,17.8
2023-04-09T10:12:41.294Z,18.5
2023-04-09T10:17:41.369Z,19.8
2023-04-09T10:27:41.286Z,20.3
2023-04-09T10:32:41.331Z,21.5
2023-04-09T10:37:41.299Z,20.0
2023-04-09T10:42:41.277Z,21.6
2023-04-09T10:52:41.331Z,22.6
2023-04-09T10:57:41.307Z,22.9
2023-04-09T11:02:41.393Z,23.4
2023-04-09T11:07:41.357Z,24.3
2023-04-09T11:12:41.316Z,23.4
2023-04-09T11:17:41.401Z,22.4
2023-04-09T11:22:41.338Z,23.0
2023-04-09T11:27:41.326Z,23.3
2023-04-09T11:32:41.343Z,22.1
2023-04-09T11:37:41.322Z,23.9
2023-04-09T11:42:41.322Z,22.9
2023-04-09T11:47:41.349Z,23.7
2023-04-09T11:52:41.368Z,23.4
2023-04-09T11:57:41.323Z,25.1
2023-04-09T12:02:41.499Z,23.8
2023-04-09T12:07:46.258Z,25.0
2023-04-09T12:12:41.332Z,26.0
2023-04-09T12:17:41.389Z,26.7
2023-04-09T12:22:41.371Z,26.4
2023-04-09T12:27:41.365Z,24.4
2023-04-09T12:32:41.381Z,24.9
2023-04-09T12:37:41.370Z,26.2
2023-04-09T12:42:41.346Z,24.2
2023-04-09T12:47:41.387Z,23.7
2023-04-09T12:52:41.325Z,24.2
2023-04-09T12:57:41.363Z,24.9
2023-04-09T13:02:41.530Z,25.6
2023-04-09T13:07:43.081Z,23.2
2023-04-09T13:12:41.354Z,23.8
2023-04-09T13:17:41.392Z,24.1
2023-04-09T13:22:41.474Z,21.6
2023-04-09T13:27:41.383Z,19.8
2023-04-09T13:32:41.453Z,23.0
2023-04-09T13:37:41.370Z,23.8
2023-04-09T13:42:41.363Z,23.6
2023-04-09T13:47:41.389Z,23.2
2023-04-09T13:52:41.382Z,24.8
2023-04-09T13:57:41.357Z,23.8
2023-04-09T14:02:41.416Z,26.5
2023-04-09T14:07:41.362Z,22.8
2023-04-09T14:12:41.373Z,19.6
2023-04-09T14:17:41.410Z,24.0
2023-04-09T14:22:41.395Z,27.9
2023-04-09T14:27:41.381Z,24.0
2023-04-09T14:32:41.392Z,26.3
2023-04-09T14:47:41.410Z,27.9
2023-04-09T14:52:41.385Z,25.8
2023-04-09T14:57:41.382Z,22.7
2023-04-09T15:02:41.902Z,21.3
2023-04-09T15:07:41.397Z,23.0
2023-04-09T15:12:41.393Z,26.1
2023-04-09T15:17:41.423Z,27.2
2023-04-09T15:22:41.410Z,26.0
2023-04-09T15:27:41.407Z,24.8
2023-04-09T15:32:41.453Z,24.7
2023-04-09T15:37:41.383Z,23.6
2023-04-09T15:42:41.394Z,25.6
2023-04-09T15:47:41.444Z,26.5
2023-04-09T15:52:41.411Z,25.6
2023-04-09T15:57:41.389Z,24.0
2023-04-09T16:02:41.416Z,25.6
2023-04-09T16:07:41.418Z,25.7
2023-04-09T16:12:41.428Z,23.8
2023-04-09T16:17:41.496Z,21.9
2023-04-09T16:22:41.437Z,19.1
2023-04-09T16:27:41.479Z,18.9
2023-04-09T16:32:41.461Z,18.8
2023-04-09T16:37:41.428Z,18.1
2023-04-09T16:42:41.409Z,18.2
2023-04-09T16:47:41.500Z,18.1
2023-04-09T16:52:41.446Z,18.0
2023-04-09T16:57:41.439Z,17.3
2023-04-09T17:07:41.464Z,17.2
2023-04-09T17:12:41.440Z,16.9
2023-04-09T17:17:41.580Z,17.0
2023-04-09T17:22:41.455Z,16.8
2023-04-09T17:27:41.430Z,16.4
2023-04-09T17:32:41.527Z,16.1
2023-04-09T17:42:41.451Z,16.0
2023-04-09T17:47:41.499Z,15.9
2023-04-09T17:52:41.489Z,15.8
2023-04-09T17:57:41.447Z,15.5
2023-04-09T18:07:41.492Z,15.2
2023-04-09T18:12:41.487Z,15.0
2023-04-09T18:17:41.515Z,14.9
2023-04-09T18:22:41.453Z,14.8
2023-04-09T18:27:41.452Z,14.6
2023-04-09T18:37:41.487Z,14.3
2023-04-09T18:42:41.479Z,14.4
2023-04-09T18:47:41.506Z,14.2
2023-04-09T18:52:41.468Z,14.0
2023-04-09T18:57:41.485Z,13.8
2023-04-09T19:02:41.759Z,13.9
2023-04-09T19:07:41.484Z,13.8
2023-04-09T19:12:41.515Z,13.7
2023-04-09T19:17:41.504Z,13.5
2023-04-09T19:27:41.511Z,13.4
2023-04-09T19:32:41.553Z,13.1
2023-04-09T19:42:41.502Z,12.8
2023-04-09T19:47:41.524Z,12.7
2023-04-09T19:52:41.516Z,12.6
2023-04-09T19:57:41.510Z,12.7
2023-04-09T20:02:41.698Z,12.8
2023-04-09T20:12:41.516Z,12.7
2023-04-09T20:22:41.493Z,12.5
2023-04-09T20:27:41.504Z,12.4
2023-04-09T20:32:41.570Z,12.3
2023-04-09T20:37:41.542Z,12.2
2023-04-09T20:47:41.514Z,12.1
2023-04-09T21:02:41.611Z,12.0
2023-04-09T21:07:41.524Z,12.1
2023-04-09T21:12:41.536Z,11.9
2023-04-09T21:27:41.547Z,11.8
2023-04-09T21:32:41.664Z,11.7
2023-04-09T21:42:41.535Z,11.5
2023-04-09T21:47:41.560Z,11.6
2023-04-09T21:52:41.560Z,11.4
2023-04-09T22:07:41.563Z,11.3
2023-04-09T22:17:41.642Z,11.2
2023-04-09T22:22:41.560Z,11.1
2023-04-09T22:27:41.657Z,11.2
2023-04-09T22:32:41.613Z,11.1
2023-04-09T22:37:41.559Z,11.0
2023-04-09T22:42:41.556Z,10.9
2023-04-09T22:47:41.612Z,10.8
2023-04-09T22:57:41.568Z,10.9
2023-04-09T23:02:41.754Z,10.8
2023-04-09T23:07:41.569Z,10.7
2023-04-09T23:32:41.595Z,10.6
2023-04-09T23:57:41.568Z,10.5
